OOCL New Zealand — VRFS2 — position and weather

sailwx.info

Track history (hours):
 
Tides and Currents Weather Stations Pressure Air Temp Water Temp Dewpoint Dewpoint Depression Visibility Wind Speed Wind Dir Waves Ship Positions

OOCL New Zealand

Last reported at 2018-Feb-23 12:00 UTC. Time now 2018-Feb-24 22:01 UTC.
Position N 08°24' E 103°48'.

Length 260 m; draft 10.7 m.

Type: Cargo ship. MMSI: 477612200.

Wind from 110 at 20 knots

Barometer 1008.0 mb
Air temperature 28.0 ° C
Visibility: greater than 10.8 NM
Dewpoint 23.7 ° C

Date/timePositionNaut miles runAvg speedWind from/ knotsBaromVisibWave heightAir tempDewpointWater temp
2018-Feb-23 12:00N 08°24' E 103°48'   110 / 201008.010.8 28.023.7
2018-Feb-20 01:04N 23°19' E 117°30'219.8
2018-Feb-20 00:56N 23°21' E 117°32'920.3
2018-Feb-20 00:30N 23°26' E 117°40'1020.5
2018-Feb-20 00:00N 23°32' E 117°49'1020.2
2018-Feb-19 23:30N 23°38' E 117°57'1020.5
2018-Feb-19 23:00N 23°44' E 118°07'1020.7
2018-Feb-19 22:30N 23°51' E 118°16'1220.9
2018-Feb-19 21:57N 23°57' E 118°26'921.2
2018-Feb-19 21:30N 24°03' E 118°34'1121.0
2018-Feb-19 21:00N 24°09' E 118°44'1121.1
2018-Feb-19 20:29N 24°16' E 118°53'12920.4
2018-Feb-19 14:12N 25°28' E 120°50'521.4
2018-Feb-19 13:57N 25°30' E 120°55'27019.4
2018-Feb-19 00:00N 27°54' E 125°12'72618.3 180 / 121011.2 5.4 18.018.0
2018-Feb-17 08:24N 34°31' E 137°02'4 9.9
2018-Feb-17 08:00N 34°34' E 136°59'816.0
2018-Feb-17 07:30N 34°40' E 136°51'918.6
2018-Feb-17 07:00N 34°47' E 136°46'918.8
2018-Feb-17 06:31N 34°57' E 136°47'612.2
2018-Feb-17 06:01N 35°02' E 136°50'1 1.0
2018-Feb-17 05:30N 35°02' E 136°50'0 0.0
2018-Feb-17 04:57N 35°02' E 136°50'0 0.0
2018-Feb-17 04:27N 35°02' E 136°50'0 0.0
2018-Feb-17 03:57N 35°02' E 136°50'0 0.0
2018-Feb-17 03:27N 35°02' E 136°50'0 0.0
2018-Feb-17 02:57N 35°02' E 136°50'0 0.0
2018-Feb-17 02:27N 35°02' E 136°50'0 0.0
2018-Feb-17 01:57N 35°02' E 136°50'0 0.0
2018-Feb-17 01:27N 35°02' E 136°50'0 0.0
2018-Feb-17 00:57N 35°02' E 136°50'0 0.0
2018-Feb-17 00:27N 35°02' E 136°50'0 0.0
2018-Feb-16 23:57N 35°02' E 136°50'0 0.0
2018-Feb-16 23:27N 35°02' E 136°50'0 0.0
2018-Feb-16 22:57N 35°02' E 136°50'0 0.1
2018-Feb-16 22:31N 35°02' E 136°50'3 5.1
2018-Feb-16 22:00N 34°60' E 136°49'714.7
2018-Feb-16 21:30N 34°53' E 136°47'917.6
2018-Feb-16 21:01N 34°44' E 136°49'918.3
2018-Feb-16 20:31N 34°37' E 136°56'714.6
2018-Feb-16 20:00N 34°32' E 137°03'510.3
2018-Feb-16 19:30N 34°30' E 137°08'511.0
2018-Feb-16 19:00N 34°29' E 137°15'611.8
2018-Feb-16 18:30N 34°29' E 137°22'4213.7
2018-Feb-16 15:24N 34°30' E 138°13'913.5
2018-Feb-16 14:46N 34°30' E 138°24'414.4
2018-Feb-16 14:30N 34°30' E 138°28'814.5
2018-Feb-16 13:57N 34°31' E 138°38'613.8
2018-Feb-16 13:30N 34°31' E 138°45'713.9
2018-Feb-16 13:00N 34°32' E 138°54'813.4
2018-Feb-16 12:26N 34°35' E 139°02'612.7
2018-Feb-16 12:00N 34°39' E 139°06'713.6
2018-Feb-16 11:27N 34°45' E 139°12'713.9
2018-Feb-16 10:57N 34°50' E 139°17'713.9
2018-Feb-16 10:28N 34°55' E 139°23'613.5
2018-Feb-16 10:00N 34°57' E 139°30'713.5
2018-Feb-16 09:30N 35°01' E 139°37'714.8
2018-Feb-16 09:00N 35°06' E 139°43'713.9
2018-Feb-16 08:30N 35°13' E 139°46'611.7
2018-Feb-16 08:01N 35°18' E 139°44'713.3
2018-Feb-16 07:30N 35°25' E 139°42'2 3.6
2018-Feb-16 07:00N 35°26' E 139°41'0 0.7
2018-Feb-16 06:30N 35°26' E 139°41'0 0.0
2018-Feb-16 06:00N 35°26' E 139°41'0 0.0
2018-Feb-16 05:31N 35°26' E 139°41'0 0.0
2018-Feb-16 04:54N 35°26' E 139°41'0 0.0
2018-Feb-16 04:30N 35°26' E 139°41'0 0.0
2018-Feb-16 04:00N 35°26' E 139°41'0 0.0
2018-Feb-16 03:30N 35°26' E 139°41'0 0.0
2018-Feb-16 03:00N 35°26' E 139°41'0 0.0
2018-Feb-16 02:30N 35°26' E 139°41'0 0.0
2018-Feb-16 02:00N 35°26' E 139°41'0 0.0
2018-Feb-16 01:30N 35°26' E 139°41'0 0.0
2018-Feb-16 01:01N 35°26' E 139°41'0 0.0
2018-Feb-16 00:30N 35°26' E 139°41'0 0.0
2018-Feb-16 00:00N 35°26' E 139°41'0 0.0
2018-Feb-15 23:30N 35°26' E 139°41'1 1.4
2018-Feb-15 23:00N 35°27' E 139°41'2 4.6
2018-Feb-15 22:31N 35°26' E 139°44'611.8
2018-Feb-15 22:00N 35°29' E 139°50'611.5
2018-Feb-15 21:30N 35°34' E 139°48'2 4.8
2018-Feb-15 21:00N 35°37' E 139°47'0 0.0
2018-Feb-15 20:28N 35°37' E 139°47'0 0.0
2018-Feb-15 19:58N 35°37' E 139°47'0 0.0
2018-Feb-15 19:28N 35°37' E 139°47'0 0.0
2018-Feb-15 18:58N 35°37' E 139°47'0 0.0
2018-Feb-15 18:25N 35°37' E 139°47'0 0.0
2018-Feb-15 17:49N 35°37' E 139°47'0 0.0
2018-Feb-15 17:25N 35°37' E 139°47'0 0.0
2018-Feb-15 16:58N 35°37' E 139°47'0 0.0
2018-Feb-15 16:28N 35°37' E 139°47'0 0.0
2018-Feb-15 15:52N 35°37' E 139°47'0 0.0
2018-Feb-15 14:52N 35°37' E 139°47'0 0.0
2018-Feb-15 13:52N 35°37' E 139°47'0 0.0
2018-Feb-15 13:25N 35°37' E 139°47'0 0.0
2018-Feb-15 12:58N 35°37' E 139°47'0 0.0
2018-Feb-15 12:28N 35°37' E 139°47'0 0.0
2018-Feb-15 11:52N 35°37' E 139°47'0 0.0
2018-Feb-15 11:28N 35°37' E 139°47'0 0.0
2018-Feb-15 10:58N 35°37' E 139°47'0 0.0
2018-Feb-15 10:25N 35°37' E 139°47'0 0.2
2018-Feb-15 10:00N 35°36' E 139°47'2 4.9
2018-Feb-15 09:30N 35°34' E 139°48'4 8.7
2018-Feb-15 09:00N 35°31' E 139°52'4 9.0
2018-Feb-15 08:30N 35°27' E 139°50'510.5
2018-Feb-15 08:01N 35°23' E 139°46'611.1
2018-Feb-15 07:30N 35°18' E 139°45'612.1
2018-Feb-15 07:00N 35°12' E 139°47'511.1
2018-Feb-15 06:30N 35°06' E 139°46'712.8
2018-Feb-15 06:00N 35°01' E 139°43'4 8.9
2018-Feb-15 05:30N 34°58' E 139°38'5 9.7
2018-Feb-15 05:00N 34°56' E 139°33'611.9
2018-Feb-15 04:30N 34°53' E 139°27'714.0
2018-Feb-15 04:00N 34°49' E 139°20'713.9
2018-Feb-15 03:29N 34°43' E 139°14'714.0
2018-Feb-15 02:59N 34°38' E 139°09'613.3
2018-Feb-15 02:30N 34°32' E 139°05'713.6
2018-Feb-15 02:00N 34°27' E 138°60'714.4
2018-Feb-15 01:30N 34°23' E 138°52'714.3
2018-Feb-15 00:58N 34°20' E 138°44'612.5
2018-Feb-15 00:29N 34°17' E 138°37'714.1
2018-Feb-14 23:59N 34°15' E 138°29'714.0
2018-Feb-14 23:30N 34°12' E 138°22'714.8
2018-Feb-14 23:00N 34°09' E 138°14'915.7
2018-Feb-14 22:27N 34°06' E 138°04'13714.3
2018-Feb-14 12:54N 33°27' E 135°26'816.4
2018-Feb-14 12:23N 33°33' E 135°19'615.6
2018-Feb-14 12:00N 33°37' E 135°14'815.3
2018-Feb-14 11:30N 33°43' E 135°08'815.6
2018-Feb-14 11:00N 33°49' E 135°02'714.4
2018-Feb-14 10:30N 33°56' E 134°59'815.2
2018-Feb-14 10:00N 34°03' E 134°59'815.4
2018-Feb-14 09:30N 34°11' E 134°58'612.8
2018-Feb-14 09:00N 34°17' E 134°59'918.8
2018-Feb-14 08:30N 34°25' E 135°04'1019.7
2018-Feb-14 08:00N 34°32' E 135°13'815.1
2018-Feb-14 07:30N 34°39' E 135°15'1 1.1
2018-Feb-14 06:58N 34°39' E 135°15'0 0.0
2018-Feb-14 06:28N 34°39' E 135°15'0 0.0
2018-Feb-14 05:58N 34°39' E 135°15'0 0.0
2018-Feb-14 05:28N 34°39' E 135°15'0 0.0
2018-Feb-14 04:58N 34°39' E 135°15'0 0.0
2018-Feb-14 04:28N 34°39' E 135°15'0 0.0
2018-Feb-14 03:58N 34°39' E 135°15'0 0.0
2018-Feb-14 03:28N 34°39' E 135°15'0 0.0
2018-Feb-14 02:58N 34°39' E 135°15'0 0.0
2018-Feb-14 02:28N 34°39' E 135°15'0 0.0
2018-Feb-14 01:58N 34°39' E 135°15'0 0.0
2018-Feb-14 01:28N 34°39' E 135°15'0 0.0
2018-Feb-14 00:58N 34°39' E 135°15'0 0.0
2018-Feb-14 00:28N 34°39' E 135°15'0 0.0
2018-Feb-13 23:58N 34°39' E 135°15'0 0.0
2018-Feb-13 23:28N 34°39' E 135°15'0 0.0
2018-Feb-13 22:58N 34°39' E 135°15'1 1.4
2018-Feb-13 22:30N 34°39' E 135°15'5 9.2
2018-Feb-13 22:00N 34°37' E 135°20'510.6
2018-Feb-13 21:30N 34°39' E 135°26'1 0.8
2018-Feb-13 20:53N 34°38' E 135°26'0 0.0
2018-Feb-13 20:29N 34°38' E 135°26'0 0.0
2018-Feb-13 19:59N 34°38' E 135°26'0 0.0
2018-Feb-13 19:29N 34°38' E 135°26'0 0.0
2018-Feb-13 18:59N 34°38' E 135°26'0 0.0
2018-Feb-13 18:29N 34°38' E 135°26'0 0.0
2018-Feb-13 17:59N 34°38' E 135°26'0 0.0
2018-Feb-13 17:29N 34°38' E 135°26'0 0.0
2018-Feb-13 16:59N 34°38' E 135°26'0 0.0
2018-Feb-13 16:29N 34°38' E 135°26'0 0.0
2018-Feb-13 15:59N 34°38' E 135°26'0 0.0
2018-Feb-13 15:29N 34°38' E 135°26'0 0.0
2018-Feb-13 14:59N 34°38' E 135°26'0 0.0
2018-Feb-13 14:29N 34°38' E 135°26'0 0.0
2018-Feb-13 13:59N 34°38' E 135°26'0 0.0
2018-Feb-13 13:29N 34°38' E 135°26'0 0.0
2018-Feb-13 12:59N 34°38' E 135°26'0 0.0
2018-Feb-13 12:29N 34°38' E 135°26'  
Track history (hours):
 
Tides and Currents Weather Stations Pressure Air Temp Water Temp Dewpoint Dewpoint Depression Visibility Wind Speed Wind Dir Waves Ship Positions

OOCL New Zealand

Last reported at 2018-Feb-23 12:00 UTC. Time now 2018-Feb-24 22:01 UTC.
Position N 08°24' E 103°48'.

Length 260 m; draft 10.7 m.

Type: Cargo ship. MMSI: 477612200.

Wind from 110 at 20 knots

Barometer 1008.0 mb
Air temperature 28.0 ° C
Visibility: greater than 10.8 NM
Dewpoint 23.7 ° C

Date/timePositionNaut miles runAvg speedWind from/ knotsBaromVisibWave heightAir tempDewpointWater temp
2018-Feb-23 12:00N 08°24' E 103°48'   110 / 201008.010.8 28.023.7
2018-Feb-20 01:04N 23°19' E 117°30'219.8
2018-Feb-20 00:56N 23°21' E 117°32'920.3
2018-Feb-20 00:30N 23°26' E 117°40'1020.5
2018-Feb-20 00:00N 23°32' E 117°49'1020.2
2018-Feb-19 23:30N 23°38' E 117°57'1020.5
2018-Feb-19 23:00N 23°44' E 118°07'1020.7
2018-Feb-19 22:30N 23°51' E 118°16'1220.9
2018-Feb-19 21:57N 23°57' E 118°26'921.2
2018-Feb-19 21:30N 24°03' E 118°34'1121.0
2018-Feb-19 21:00N 24°09' E 118°44'1121.1
2018-Feb-19 20:29N 24°16' E 118°53'12920.4
2018-Feb-19 14:12N 25°28' E 120°50'521.4
2018-Feb-19 13:57N 25°30' E 120°55'27019.4
2018-Feb-19 00:00N 27°54' E 125°12'72618.3 180 / 121011.2 5.4 18.018.0
2018-Feb-17 08:24N 34°31' E 137°02'4 9.9
2018-Feb-17 08:00N 34°34' E 136°59'816.0
2018-Feb-17 07:30N 34°40' E 136°51'918.6
2018-Feb-17 07:00N 34°47' E 136°46'918.8
2018-Feb-17 06:31N 34°57' E 136°47'612.2
2018-Feb-17 06:01N 35°02' E 136°50'1 1.0
2018-Feb-17 05:30N 35°02' E 136°50'0 0.0
2018-Feb-17 04:57N 35°02' E 136°50'0 0.0
2018-Feb-17 04:27N 35°02' E 136°50'0 0.0
2018-Feb-17 03:57N 35°02' E 136°50'0 0.0
2018-Feb-17 03:27N 35°02' E 136°50'0 0.0
2018-Feb-17 02:57N 35°02' E 136°50'0 0.0
2018-Feb-17 02:27N 35°02' E 136°50'0 0.0
2018-Feb-17 01:57N 35°02' E 136°50'0 0.0
2018-Feb-17 01:27N 35°02' E 136°50'0 0.0
2018-Feb-17 00:57N 35°02' E 136°50'0 0.0
2018-Feb-17 00:27N 35°02' E 136°50'0 0.0
2018-Feb-16 23:57N 35°02' E 136°50'0 0.0
2018-Feb-16 23:27N 35°02' E 136°50'0 0.0
2018-Feb-16 22:57N 35°02' E 136°50'0 0.1
2018-Feb-16 22:31N 35°02' E 136°50'3 5.1
2018-Feb-16 22:00N 34°60' E 136°49'714.7
2018-Feb-16 21:30N 34°53' E 136°47'917.6
2018-Feb-16 21:01N 34°44' E 136°49'918.3
2018-Feb-16 20:31N 34°37' E 136°56'714.6
2018-Feb-16 20:00N 34°32' E 137°03'510.3
2018-Feb-16 19:30N 34°30' E 137°08'511.0
2018-Feb-16 19:00N 34°29' E 137°15'611.8
2018-Feb-16 18:30N 34°29' E 137°22'4213.7
2018-Feb-16 15:24N 34°30' E 138°13'913.5
2018-Feb-16 14:46N 34°30' E 138°24'414.4
2018-Feb-16 14:30N 34°30' E 138°28'814.5
2018-Feb-16 13:57N 34°31' E 138°38'613.8
2018-Feb-16 13:30N 34°31' E 138°45'713.9
2018-Feb-16 13:00N 34°32' E 138°54'813.4
2018-Feb-16 12:26N 34°35' E 139°02'612.7
2018-Feb-16 12:00N 34°39' E 139°06'713.6
2018-Feb-16 11:27N 34°45' E 139°12'713.9
2018-Feb-16 10:57N 34°50' E 139°17'713.9
2018-Feb-16 10:28N 34°55' E 139°23'613.5
2018-Feb-16 10:00N 34°57' E 139°30'713.5
2018-Feb-16 09:30N 35°01' E 139°37'714.8
2018-Feb-16 09:00N 35°06' E 139°43'713.9
2018-Feb-16 08:30N 35°13' E 139°46'611.7
2018-Feb-16 08:01N 35°18' E 139°44'713.3
2018-Feb-16 07:30N 35°25' E 139°42'2 3.6
2018-Feb-16 07:00N 35°26' E 139°41'0 0.7
2018-Feb-16 06:30N 35°26' E 139°41'0 0.0
2018-Feb-16 06:00N 35°26' E 139°41'0 0.0
2018-Feb-16 05:31N 35°26' E 139°41'0 0.0
2018-Feb-16 04:54N 35°26' E 139°41'0 0.0
2018-Feb-16 04:30N 35°26' E 139°41'0 0.0
2018-Feb-16 04:00N 35°26' E 139°41'0 0.0
2018-Feb-16 03:30N 35°26' E 139°41'0 0.0
2018-Feb-16 03:00N 35°26' E 139°41'0 0.0
2018-Feb-16 02:30N 35°26' E 139°41'0 0.0
2018-Feb-16 02:00N 35°26' E 139°41'0 0.0
2018-Feb-16 01:30N 35°26' E 139°41'0 0.0
2018-Feb-16 01:01N 35°26' E 139°41'0 0.0
2018-Feb-16 00:30N 35°26' E 139°41'0 0.0
2018-Feb-16 00:00N 35°26' E 139°41'0 0.0
2018-Feb-15 23:30N 35°26' E 139°41'1 1.4
2018-Feb-15 23:00N 35°27' E 139°41'2 4.6
2018-Feb-15 22:31N 35°26' E 139°44'611.8
2018-Feb-15 22:00N 35°29' E 139°50'611.5
2018-Feb-15 21:30N 35°34' E 139°48'2 4.8
2018-Feb-15 21:00N 35°37' E 139°47'0 0.0
2018-Feb-15 20:28N 35°37' E 139°47'0 0.0
2018-Feb-15 19:58N 35°37' E 139°47'0 0.0
2018-Feb-15 19:28N 35°37' E 139°47'0 0.0
2018-Feb-15 18:58N 35°37' E 139°47'0 0.0
2018-Feb-15 18:25N 35°37' E 139°47'0 0.0
2018-Feb-15 17:49N 35°37' E 139°47'0 0.0
2018-Feb-15 17:25N 35°37' E 139°47'0 0.0
2018-Feb-15 16:58N 35°37' E 139°47'0 0.0
2018-Feb-15 16:28N 35°37' E 139°47'0 0.0
2018-Feb-15 15:52N 35°37' E 139°47'0 0.0
2018-Feb-15 14:52N 35°37' E 139°47'0 0.0
2018-Feb-15 13:52N 35°37' E 139°47'0 0.0
2018-Feb-15 13:25N 35°37' E 139°47'0 0.0
2018-Feb-15 12:58N 35°37' E 139°47'0 0.0
2018-Feb-15 12:28N 35°37' E 139°47'0 0.0
2018-Feb-15 11:52N 35°37' E 139°47'0 0.0
2018-Feb-15 11:28N 35°37' E 139°47'0 0.0
2018-Feb-15 10:58N 35°37' E 139°47'0 0.0
2018-Feb-15 10:25N 35°37' E 139°47'0 0.2
2018-Feb-15 10:00N 35°36' E 139°47'2 4.9
2018-Feb-15 09:30N 35°34' E 139°48'4 8.7
2018-Feb-15 09:00N 35°31' E 139°52'4 9.0
2018-Feb-15 08:30N 35°27' E 139°50'510.5
2018-Feb-15 08:01N 35°23' E 139°46'611.1
2018-Feb-15 07:30N 35°18' E 139°45'612.1
2018-Feb-15 07:00N 35°12' E 139°47'511.1
2018-Feb-15 06:30N 35°06' E 139°46'712.8
2018-Feb-15 06:00N 35°01' E 139°43'4 8.9
2018-Feb-15 05:30N 34°58' E 139°38'5 9.7
2018-Feb-15 05:00N 34°56' E 139°33'611.9
2018-Feb-15 04:30N 34°53' E 139°27'714.0
2018-Feb-15 04:00N 34°49' E 139°20'713.9
2018-Feb-15 03:29N 34°43' E 139°14'714.0
2018-Feb-15 02:59N 34°38' E 139°09'613.3
2018-Feb-15 02:30N 34°32' E 139°05'713.6
2018-Feb-15 02:00N 34°27' E 138°60'714.4
2018-Feb-15 01:30N 34°23' E 138°52'714.3
2018-Feb-15 00:58N 34°20' E 138°44'612.5
2018-Feb-15 00:29N 34°17' E 138°37'714.1
2018-Feb-14 23:59N 34°15' E 138°29'714.0
2018-Feb-14 23:30N 34°12' E 138°22'714.8
2018-Feb-14 23:00N 34°09' E 138°14'915.7
2018-Feb-14 22:27N 34°06' E 138°04'13714.3
2018-Feb-14 12:54N 33°27' E 135°26'816.4
2018-Feb-14 12:23N 33°33' E 135°19'615.6
2018-Feb-14 12:00N 33°37' E 135°14'815.3
2018-Feb-14 11:30N 33°43' E 135°08'815.6
2018-Feb-14 11:00N 33°49' E 135°02'714.4
2018-Feb-14 10:30N 33°56' E 134°59'815.2
2018-Feb-14 10:00N 34°03' E 134°59'815.4
2018-Feb-14 09:30N 34°11' E 134°58'612.8
2018-Feb-14 09:00N 34°17' E 134°59'918.8
2018-Feb-14 08:30N 34°25' E 135°04'1019.7
2018-Feb-14 08:00N 34°32' E 135°13'815.1
2018-Feb-14 07:30N 34°39' E 135°15'1 1.1
2018-Feb-14 06:58N 34°39' E 135°15'0 0.0
2018-Feb-14 06:28N 34°39' E 135°15'0 0.0
2018-Feb-14 05:58N 34°39' E 135°15'0 0.0
2018-Feb-14 05:28N 34°39' E 135°15'0 0.0
2018-Feb-14 04:58N 34°39' E 135°15'0 0.0
2018-Feb-14 04:28N 34°39' E 135°15'0 0.0
2018-Feb-14 03:58N 34°39' E 135°15'0 0.0
2018-Feb-14 03:28N 34°39' E 135°15'0 0.0
2018-Feb-14 02:58N 34°39' E 135°15'0 0.0
2018-Feb-14 02:28N 34°39' E 135°15'0 0.0
2018-Feb-14 01:58N 34°39' E 135°15'0 0.0
2018-Feb-14 01:28N 34°39' E 135°15'0 0.0
2018-Feb-14 00:58N 34°39' E 135°15'0 0.0
2018-Feb-14 00:28N 34°39' E 135°15'0 0.0
2018-Feb-13 23:58N 34°39' E 135°15'0 0.0
2018-Feb-13 23:28N 34°39' E 135°15'0 0.0
2018-Feb-13 22:58N 34°39' E 135°15'1 1.4
2018-Feb-13 22:30N 34°39' E 135°15'5 9.2
2018-Feb-13 22:00N 34°37' E 135°20'510.6
2018-Feb-13 21:30N 34°39' E 135°26'1 0.8
2018-Feb-13 20:53N 34°38' E 135°26'0 0.0
2018-Feb-13 20:29N 34°38' E 135°26'0 0.0
2018-Feb-13 19:59N 34°38' E 135°26'0 0.0
2018-Feb-13 19:29N 34°38' E 135°26'0 0.0
2018-Feb-13 18:59N 34°38' E 135°26'0 0.0
2018-Feb-13 18:29N 34°38' E 135°26'0 0.0
2018-Feb-13 17:59N 34°38' E 135°26'0 0.0
2018-Feb-13 17:29N 34°38' E 135°26'0 0.0
2018-Feb-13 16:59N 34°38' E 135°26'0 0.0
2018-Feb-13 16:29N 34°38' E 135°26'0 0.0
2018-Feb-13 15:59N 34°38' E 135°26'0 0.0
2018-Feb-13 15:29N 34°38' E 135°26'0 0.0
2018-Feb-13 14:59N 34°38' E 135°26'0 0.0
2018-Feb-13 14:29N 34°38' E 135°26'0 0.0
2018-Feb-13 13:59N 34°38' E 135°26'0 0.0
2018-Feb-13 13:29N 34°38' E 135°26'0 0.0
2018-Feb-13 12:59N 34°38' E 135°26'0 0.0
2018-Feb-13 12:29N 34°38' E 135°26'  

Dump ship's entire track history